createdAt,value
2018-07-13T00:00:26.697Z,99.99
2018-07-13T00:01:27.284Z,99.99
2018-07-13T00:02:27.872Z,99.99
2018-07-13T00:03:28.507Z,99.99
2018-07-13T00:04:29.090Z,99.99
2018-07-13T00:05:29.678Z,99.99
2018-07-13T00:06:30.308Z,99.99
2018-07-13T00:07:30.900Z,99.99
2018-07-13T00:08:31.491Z,99.99
2018-07-13T00:09:32.163Z,99.99
2018-07-13T00:10:32.750Z,99.99
2018-07-13T00:11:33.337Z,99.99
2018-07-13T00:12:33.924Z,99.99
2018-07-13T00:13:34.561Z,99.99
2018-07-13T00:14:35.142Z,99.99
2018-07-13T00:15:35.727Z,99.99
2018-07-13T00:16:36.321Z,99.99
2018-07-13T00:17:36.961Z,99.99
2018-07-13T00:18:37.494Z,99.99
2018-07-13T00:19:38.085Z,99.99
2018-07-13T00:20:38.671Z,99.99
2018-07-13T00:21:39.260Z,99.99
2018-07-13T00:22:39.851Z,99.99
2018-07-13T00:23:40.439Z,99.99
2018-07-13T00:24:41.031Z,99.99
2018-07-13T00:25:41.671Z,99.99
2018-07-13T00:26:42.405Z,99.99
2018-07-13T00:27:42.992Z,99.99
2018-07-13T00:28:43.581Z,99.99
2018-07-13T00:29:44.224Z,99.99
2018-07-13T00:30:44.804Z,99.99
2018-07-13T00:31:45.392Z,99.99
2018-07-13T00:32:45.980Z,99.99
2018-07-13T00:33:46.572Z,99.99
2018-07-13T00:34:47.165Z,99.99
2018-07-13T00:35:47.755Z,99.99
2018-07-13T00:36:48.336Z,99.99
2018-07-13T00:37:48.930Z,99.99
2018-07-13T00:38:49.513Z,99.99
2018-07-13T00:39:50.114Z,99.99
2018-07-13T00:40:50.690Z,99.99
2018-07-13T00:41:51.327Z,99.99
2018-07-13T00:42:51.915Z,99.99
2018-07-13T00:43:52.496Z,99.99
2018-07-13T00:44:53.134Z,99.99
2018-07-13T00:45:53.720Z,99.99
2018-07-13T00:46:54.308Z,99.99
2018-07-13T00:47:54.897Z,99.99
2018-07-13T00:48:55.488Z,99.99
2018-07-13T00:49:56.129Z,99.99
2018-07-13T00:50:56.718Z,99.99
2018-07-13T00:51:57.302Z,99.99
2018-07-13T00:52:57.888Z,99.99
2018-07-13T00:53:58.473Z,99.99
2018-07-13T00:54:59.067Z,99.99
2018-07-13T00:55:59.654Z,99.99
2018-07-13T00:57:00.248Z,99.99
2018-07-13T00:58:00.833Z,99.99
2018-07-13T00:59:01.474Z,99.99
2018-07-13T01:00:02.164Z,99.99
2018-07-13T01:01:02.741Z,99.99
2018-07-13T01:02:03.335Z,99.99
2018-07-13T01:03:03.930Z,99.99
2018-07-13T01:04:04.565Z,99.99
2018-07-13T01:05:05.153Z,99.99
2018-07-13T01:06:05.744Z,99.99
2018-07-13T01:07:06.383Z,99.99
2018-07-13T01:08:06.968Z,99.99
2018-07-13T01:09:07.559Z,99.99
2018-07-13T01:10:08.148Z,99.99
2018-07-13T01:11:08.735Z,99.99
2018-07-13T01:12:09.316Z,99.99
2018-07-13T01:13:09.899Z,99.99
2018-07-13T01:14:10.488Z,99.99
2018-07-13T01:15:11.081Z,99.99
2018-07-13T01:16:11.666Z,99.99
2018-07-13T01:17:12.299Z,99.99
2018-07-13T01:18:12.940Z,99.99
2018-07-13T01:19:13.576Z,99.99
2018-07-13T01:20:14.163Z,99.99
2018-07-13T01:21:14.799Z,99.99
2018-07-13T01:22:15.390Z,99.99
2018-07-13T01:23:15.974Z,99.99
2018-07-13T01:24:16.611Z,99.99
2018-07-13T01:25:17.199Z,99.99
2018-07-13T01:26:17.837Z,99.99
2018-07-13T01:27:18.425Z,99.99
2018-07-13T01:28:19.013Z,99.99
2018-07-13T01:29:19.602Z,99.99
2018-07-13T01:30:20.190Z,99.99
2018-07-13T01:31:20.774Z,99.99
2018-07-13T01:32:21.357Z,99.99
2018-07-13T01:33:21.939Z,99.99
2018-07-13T01:34:22.529Z,99.99
2018-07-13T01:35:23.114Z,99.99
2018-07-13T01:36:23.703Z,99.99
2018-07-13T01:37:24.280Z,99.99
2018-07-13T01:38:24.864Z,99.99
2018-07-13T01:39:25.453Z,99.99
2018-07-13T01:40:26.089Z,99.99
2018-07-13T01:41:26.724Z,99.99
2018-07-13T01:42:27.312Z,99.99
2018-07-13T01:43:27.947Z,99.99
2018-07-13T01:44:28.535Z,99.99
2018-07-13T01:45:29.116Z,99.99
2018-07-13T01:46:29.699Z,99.99
2018-07-13T01:47:30.286Z,99.99
2018-07-13T01:48:30.879Z,99.99
2018-07-13T01:49:31.509Z,99.99
2018-07-13T01:50:32.094Z,99.99
2018-07-13T01:51:32.675Z,99.99
2018-07-13T01:52:33.257Z,99.99
2018-07-13T01:53:33.845Z,99.99
2018-07-13T01:54:34.432Z,99.99
2018-07-13T01:55:35.020Z,99.99
2018-07-13T01:56:35.597Z,99.99
2018-07-13T01:57:36.227Z,99.99
2018-07-13T01:58:36.811Z,99.99
2018-07-13T01:59:37.404Z,99.99
2018-07-13T02:00:38.083Z,99.99
2018-07-13T02:01:38.666Z,99.99
2018-07-13T02:02:39.304Z,99.99
2018-07-13T02:03:39.890Z,99.99
2018-07-13T02:04:40.471Z,99.99
2018-07-13T02:05:41.057Z,99.99
2018-07-13T02:06:41.641Z,99.99
2018-07-13T02:07:42.227Z,99.99
2018-07-13T02:08:42.808Z,99.99
2018-07-13T02:09:43.396Z,99.99
2018-07-13T02:10:43.981Z,99.99
2018-07-13T02:11:44.567Z,99.99
2018-07-13T02:12:45.156Z,99.99
2018-07-13T02:13:45.741Z,99.99
2018-07-13T02:14:46.327Z,99.99
2018-07-13T02:15:46.915Z,99.99
2018-07-13T02:16:47.551Z,99.99
2018-07-13T02:17:48.188Z,99.99
2018-07-13T02:18:48.773Z,99.99
2018-07-13T02:19:49.352Z,99.99
2018-07-13T02:20:49.940Z,99.99
2018-07-13T02:21:50.577Z,99.99
2018-07-13T02:22:51.162Z,99.99
2018-07-13T02:23:51.747Z,99.99
2018-07-13T02:24:52.333Z,99.99
2018-07-13T02:25:52.914Z,99.99
2018-07-13T02:26:53.501Z,99.99
2018-07-13T02:27:54.126Z,99.99
2018-07-13T02:28:54.753Z,99.99
2018-07-13T02:29:55.342Z,99.99
2018-07-13T02:30:55.954Z,99.99
2018-07-13T02:31:56.512Z,99.99
2018-07-13T02:32:57.094Z,99.99
2018-07-13T02:33:57.826Z,99.99
2018-07-13T02:34:58.448Z,99.99
2018-07-13T02:35:58.951Z,99.99
2018-07-13T02:36:59.530Z,99.99
2018-07-13T02:38:00.117Z,99.99
2018-07-13T02:39:00.804Z,99.99
2018-07-13T02:40:01.342Z,99.99
2018-07-13T02:41:01.945Z,99.99
2018-07-13T02:42:02.505Z,99.99
2018-07-13T02:43:03.092Z,99.99
2018-07-13T02:44:03.677Z,99.99
2018-07-13T02:45:04.264Z,99.99
2018-07-13T02:46:04.849Z,99.99
2018-07-13T02:47:05.434Z,99.99
2018-07-13T02:48:06.021Z,99.99
2018-07-13T02:49:06.606Z,99.99
2018-07-13T02:50:07.194Z,99.99
2018-07-13T02:51:07.823Z,99.99
2018-07-13T02:52:08.464Z,99.99
2018-07-13T02:53:09.045Z,99.99
2018-07-13T02:54:09.631Z,99.99
2018-07-13T02:55:10.217Z,99.99
2018-07-13T02:56:10.796Z,99.99
2018-07-13T02:57:11.381Z,99.99
2018-07-13T02:58:12.020Z,99.99
2018-07-13T02:59:12.604Z,99.99
2018-07-13T03:00:13.191Z,99.99
2018-07-13T03:01:13.772Z,99.99
2018-07-13T03:02:14.401Z,99.99
2018-07-13T03:03:14.978Z,99.99
2018-07-13T03:04:15.579Z,99.99
2018-07-13T03:05:16.154Z,99.99
2018-07-13T03:06:16.794Z,99.99
2018-07-13T03:07:17.420Z,99.99
2018-07-13T03:08:18.055Z,99.99
2018-07-13T03:09:18.640Z,99.99
2018-07-13T03:10:19.228Z,99.99
2018-07-13T03:11:19.865Z,99.99
2018-07-13T03:12:20.453Z,99.99
2018-07-13T03:13:21.034Z,99.99
2018-07-13T03:14:21.621Z,99.99
2018-07-13T03:15:22.251Z,99.99
2018-07-13T03:16:22.837Z,99.99
2018-07-13T03:17:23.430Z,99.99
2018-07-13T03:18:24.010Z,99.99
2018-07-13T03:19:24.591Z,99.99
2018-07-13T03:20:25.184Z,99.99
2018-07-13T03:21:25.759Z,99.99
2018-07-13T03:22:26.355Z,99.99
2018-07-13T03:23:26.976Z,99.99
2018-07-13T03:24:27.559Z,99.99
2018-07-13T03:25:28.148Z,99.99
2018-07-13T03:26:28.785Z,99.99
2018-07-13T03:27:29.421Z,99.99
2018-07-13T03:28:30.009Z,99.99
2018-07-13T03:29:30.642Z,99.99
2018-07-13T03:30:31.230Z,99.99
2018-07-13T03:31:31.815Z,99.99
2018-07-13T03:32:32.391Z,99.99
2018-07-13T03:33:32.979Z,99.99
2018-07-13T03:34:33.562Z,99.99
2018-07-13T03:35:34.191Z,99.99
2018-07-13T03:36:34.778Z,99.99
2018-07-13T03:37:35.415Z,99.99
2018-07-13T03:38:36.002Z,99.99
2018-07-13T03:39:36.581Z,99.99
2018-07-13T03:40:37.175Z,99.99
2018-07-13T03:41:37.753Z,99.99
2018-07-13T03:42:38.337Z,99.99
2018-07-13T03:43:38.926Z,99.99
2018-07-13T03:44:39.507Z,99.99
2018-07-13T03:45:40.148Z,99.99
2018-07-13T03:46:40.771Z,99.99
2018-07-13T03:47:41.364Z,99.99
2018-07-13T03:48:41.997Z,99.99
2018-07-13T03:49:42.581Z,99.99
2018-07-13T03:50:43.217Z,99.99
2018-07-13T03:51:43.846Z,99.99
2018-07-13T03:52:44.429Z,99.99
2018-07-13T03:53:45.018Z,99.99
2018-07-13T03:54:45.600Z,99.99
2018-07-13T03:55:46.187Z,99.99
2018-07-13T03:56:46.772Z,99.99
2018-07-13T03:57:47.358Z,99.99
2018-07-13T03:58:47.941Z,99.99
2018-07-13T03:59:48.525Z,99.99
2018-07-13T04:00:49.154Z,99.99
2018-07-13T04:01:49.793Z,99.99
2018-07-13T04:02:50.376Z,99.99
2018-07-13T04:03:50.989Z,99.99
2018-07-13T04:04:51.542Z,99.99
2018-07-13T04:05:52.174Z,99.99
2018-07-13T04:06:52.759Z,99.99
2018-07-13T04:07:53.349Z,99.99
2018-07-13T04:08:53.932Z,99.99
2018-07-13T04:09:54.518Z,99.99
2018-07-13T04:10:55.097Z,99.99
2018-07-13T04:11:55.684Z,99.99
2018-07-13T04:12:56.269Z,99.99
2018-07-13T04:13:56.855Z,99.99
2018-07-13T04:14:57.435Z,99.99
2018-07-13T04:15:58.020Z,99.99
2018-07-13T04:16:58.656Z,99.99
2018-07-13T04:17:59.240Z,99.99
2018-07-13T04:18:59.880Z,99.99
2018-07-13T04:20:00.457Z,99.99
2018-07-13T04:21:01.044Z,99.99
2018-07-13T04:22:01.722Z,99.99
2018-07-13T04:23:02.300Z,99.99
2018-07-13T04:24:02.931Z,99.99
2018-07-13T04:25:03.517Z,99.99
2018-07-13T04:26:04.099Z,99.99
2018-07-13T04:27:04.677Z,99.99
2018-07-13T04:28:05.258Z,99.99
2018-07-13T04:29:05.843Z,99.99
2018-07-13T04:30:06.432Z,99.99
2018-07-13T04:31:07.017Z,99.99
2018-07-13T04:32:07.649Z,99.99
2018-07-13T04:33:08.242Z,99.99
2018-07-13T04:34:08.898Z,99.99
2018-07-13T04:35:09.415Z,99.99
2018-07-13T04:36:09.998Z,99.99
2018-07-13T04:37:10.640Z,99.99
2018-07-13T04:38:11.269Z,99.99
2018-07-13T04:39:11.854Z,99.99
2018-07-13T04:40:12.436Z,99.99
2018-07-13T04:41:13.022Z,99.99
2018-07-13T04:42:13.608Z,99.99
2018-07-13T04:43:14.193Z,99.99
2018-07-13T04:44:14.828Z,99.99
2018-07-13T04:45:15.412Z,99.99
2018-07-13T04:46:15.994Z,99.99
2018-07-13T04:47:16.580Z,99.99
2018-07-13T04:48:17.168Z,99.99
2018-07-13T04:49:17.755Z,99.99
2018-07-13T04:50:18.439Z,99.99
2018-07-13T04:51:18.974Z,99.99
2018-07-13T04:52:19.556Z,99.99
2018-07-13T04:53:20.141Z,99.99
2018-07-13T04:54:20.727Z,99.99
2018-07-13T04:55:21.314Z,99.99
2018-07-13T04:56:21.900Z,99.99
2018-07-13T04:57:22.489Z,99.99
2018-07-13T04:58:23.123Z,99.99
2018-07-13T04:59:23.755Z,99.99
2018-07-13T05:00:24.336Z,99.99
2018-07-13T05:01:24.918Z,99.99
2018-07-13T05:02:25.557Z,99.99
2018-07-13T05:03:26.138Z,99.99
2018-07-13T05:04:26.725Z,99.99
2018-07-13T05:05:27.311Z,99.99
2018-07-13T05:06:27.896Z,99.99
2018-07-13T05:07:28.485Z,99.99
2018-07-13T05:08:29.071Z,99.99
2018-07-13T05:09:29.658Z,99.99
2018-07-13T05:10:30.289Z,99.99
2018-07-13T05:11:30.874Z,99.99
2018-07-13T05:12:31.464Z,99.99
2018-07-13T05:13:32.047Z,99.99
2018-07-13T05:14:32.630Z,99.99
2018-07-13T05:15:33.234Z,99.99
2018-07-13T05:16:33.837Z,99.99
2018-07-13T05:17:34.421Z,99.99
2018-07-13T05:18:35.010Z,99.99
2018-07-13T05:19:35.589Z,99.99
2018-07-13T05:20:36.225Z,99.99
2018-07-13T05:21:36.859Z,99.99
2018-07-13T05:22:37.445Z,99.99
2018-07-13T05:23:38.026Z,99.99
2018-07-13T05:24:38.615Z,99.99
2018-07-13T05:25:39.200Z,99.99
2018-07-13T05:26:39.786Z,99.99
2018-07-13T05:27:40.363Z,99.99
2018-07-13T05:28:40.946Z,99.99
2018-07-13T05:29:41.587Z,99.99
2018-07-13T05:30:42.222Z,99.99
2018-07-13T05:31:42.804Z,99.99
2018-07-13T05:32:43.488Z,99.99
2018-07-13T05:33:44.069Z,99.99
2018-07-13T05:34:44.659Z,99.99
2018-07-13T05:35:45.346Z,99.99
2018-07-13T05:36:45.935Z,99.99
2018-07-13T05:37:46.521Z,99.99
2018-07-13T05:38:47.099Z,99.99
2018-07-13T05:39:47.680Z,99.99
2018-07-13T05:40:48.310Z,99.99
2018-07-13T05:41:48.889Z,99.99
2018-07-13T05:42:49.478Z,99.99
2018-07-13T05:43:50.113Z,99.99
2018-07-13T05:44:50.701Z,99.99
2018-07-13T05:45:51.286Z,99.99
2018-07-13T05:46:51.869Z,99.99
2018-07-13T05:47:52.457Z,99.99
2018-07-13T05:48:53.089Z,99.99
2018-07-13T05:49:53.725Z,99.99
2018-07-13T05:50:54.307Z,99.99
2018-07-13T05:51:54.946Z,99.99
2018-07-13T05:52:55.527Z,99.99
2018-07-13T05:53:56.118Z,99.99
2018-07-13T05:54:56.700Z,99.99
2018-07-13T05:55:57.287Z,99.99
2018-07-13T05:56:57.872Z,99.99
2018-07-13T05:57:58.460Z,99.99
2018-07-13T05:58:59.037Z,99.99
2018-07-13T05:59:59.625Z,99.99
2018-07-13T06:01:00.213Z,99.99
2018-07-13T06:02:00.795Z,99.99
2018-07-13T06:03:01.383Z,99.99
2018-07-13T06:04:02.069Z,99.99
2018-07-13T06:05:02.601Z,99.99
2018-07-13T06:06:03.235Z,99.99
2018-07-13T06:07:03.816Z,99.99
2018-07-13T06:08:04.400Z,99.99
2018-07-13T06:09:05.031Z,99.99
2018-07-13T06:10:05.620Z,99.99
2018-07-13T06:11:06.206Z,99.99
2018-07-13T06:12:06.792Z,99.99
2018-07-13T06:13:07.380Z,99.99
2018-07-13T06:14:07.958Z,99.99
2018-07-13T06:15:08.596Z,99.99
2018-07-13T06:16:09.172Z,99.99
2018-07-13T06:17:09.761Z,99.99
2018-07-13T06:18:10.349Z,99.99
2018-07-13T06:19:10.975Z,99.99
2018-07-13T06:20:11.517Z,99.99
2018-07-13T06:21:12.106Z,99.99
2018-07-13T06:22:12.735Z,99.99
2018-07-13T06:23:13.324Z,99.99
2018-07-13T06:24:13.996Z,99.99
2018-07-13T06:25:14.544Z,99.99
2018-07-13T06:26:15.129Z,99.99
2018-07-13T06:27:15.766Z,99.99
2018-07-13T06:28:16.350Z,99.99
2018-07-13T06:29:16.931Z,99.99
2018-07-13T06:30:17.583Z,99.99
2018-07-13T06:31:18.110Z,99.99
2018-07-13T06:32:18.690Z,99.99
2018-07-13T06:33:19.279Z,99.99
2018-07-13T06:34:19.864Z,99.99
2018-07-13T06:35:20.450Z,99.99
2018-07-13T06:36:21.036Z,99.99
2018-07-13T06:37:21.620Z,99.99
2018-07-13T06:38:22.256Z,99.99
2018-07-13T06:39:22.842Z,99.99
2018-07-13T06:40:23.483Z,99.99
2018-07-13T06:41:24.112Z,99.99
2018-07-13T06:42:24.693Z,99.99
2018-07-13T06:43:25.283Z,99.99
2018-07-13T06:44:25.866Z,99.99
2018-07-13T06:45:26.454Z,99.99
2018-07-13T06:46:27.042Z,99.99
2018-07-13T06:47:27.672Z,99.99
2018-07-13T06:48:28.306Z,99.99
2018-07-13T06:49:28.893Z,99.99
2018-07-13T06:50:29.543Z,99.99
2018-07-13T06:51:30.064Z,99.99
2018-07-13T06:52:30.648Z,99.99
2018-07-13T06:53:31.234Z,99.99
2018-07-13T06:54:31.866Z,99.99
2018-07-13T06:55:32.456Z,99.99
2018-07-13T06:56:33.043Z,99.99
2018-07-13T06:57:33.679Z,99.99
2018-07-13T06:58:34.266Z,99.99
2018-07-13T06:59:34.847Z,99.99
2018-07-13T07:00:35.480Z,99.99
2018-07-13T07:01:36.070Z,99.99
2018-07-13T07:02:36.653Z,99.99
2018-07-13T07:03:37.237Z,99.99
2018-07-13T07:04:37.815Z,99.99
2018-07-13T07:05:38.401Z,99.99
2018-07-13T07:06:38.989Z,99.99
2018-07-13T07:07:39.608Z,99.99
2018-07-13T07:08:40.158Z,99.99
2018-07-13T07:09:40.745Z,99.99
2018-07-13T07:10:41.327Z,99.99
2018-07-13T07:11:41.910Z,99.99
2018-07-13T07:12:42.501Z,99.99
2018-07-13T07:13:43.088Z,99.99
2018-07-13T07:14:43.672Z,99.99
2018-07-13T07:15:44.260Z,99.99
2018-07-13T07:16:44.897Z,99.99
2018-07-13T07:17:45.538Z,99.99
2018-07-13T07:18:46.116Z,99.99
2018-07-13T07:19:46.702Z,99.99
2018-07-13T07:20:47.288Z,99.99
2018-07-13T07:21:47.871Z,99.99
2018-07-13T07:22:48.459Z,99.99
2018-07-13T07:23:49.099Z,99.99
2018-07-13T07:24:49.682Z,99.99
2018-07-13T07:25:50.268Z,99.99
2018-07-13T07:26:50.853Z,99.99
2018-07-13T07:27:51.439Z,99.99
2018-07-13T07:28:52.026Z,99.99
2018-07-13T07:29:52.611Z,99.99
2018-07-13T07:30:53.200Z,99.99
2018-07-13T07:31:53.784Z,99.99
2018-07-13T07:32:54.421Z,99.99
2018-07-13T07:33:55.004Z,99.99
2018-07-13T07:34:55.590Z,99.99
2018-07-13T07:35:56.228Z,99.99
2018-07-13T07:36:56.813Z,99.99
2018-07-13T07:37:57.395Z,99.99
2018-07-13T07:38:57.984Z,99.99
2018-07-13T07:39:58.565Z,99.99
2018-07-13T07:40:59.209Z,99.99
2018-07-13T07:41:59.828Z,99.99
2018-07-13T07:43:00.417Z,99.99
2018-07-13T07:44:01.131Z,99.99
2018-07-13T07:45:01.682Z,99.99
2018-07-13T07:46:02.269Z,99.99
2018-07-13T07:47:02.854Z,99.99
2018-07-13T07:48:03.438Z,99.99
2018-07-13T07:49:04.024Z,99.99
2018-07-13T07:50:04.633Z,99.99
2018-07-13T07:51:05.191Z,99.99
2018-07-13T07:52:05.780Z,99.99
2018-07-13T07:53:06.412Z,99.99
2018-07-13T07:54:06.993Z,99.99
2018-07-13T07:55:07.584Z,99.99
2018-07-13T07:56:08.164Z,99.99
2018-07-13T07:57:08.803Z,99.99
2018-07-13T07:58:09.389Z,99.99
2018-07-13T07:59:10.027Z,99.99
2018-07-13T08:00:10.612Z,99.99
2018-07-13T08:01:11.193Z,99.99
2018-07-13T08:02:11.773Z,99.99
2018-07-13T08:03:12.386Z,99.99
2018-07-13T08:04:12.945Z,99.99
2018-07-13T08:05:13.530Z,99.99
2018-07-13T08:06:14.308Z,99.99
2018-07-13T08:07:15.280Z,99.99
2018-07-13T08:08:15.339Z,99.99
2018-07-13T08:09:15.921Z,99.99
2018-07-13T08:10:16.508Z,99.99
2018-07-13T08:11:17.091Z,99.99
2018-07-13T08:12:17.678Z,99.99
2018-07-13T08:13:18.267Z,99.99
2018-07-13T08:14:18.991Z,99.99
2018-07-13T08:15:19.485Z,99.99
2018-07-13T08:16:20.072Z,99.99
2018-07-13T08:17:20.655Z,99.99
2018-07-13T08:18:21.291Z,99.99
2018-07-13T08:19:21.875Z,99.99
2018-07-13T08:20:27.533Z,99.99
2018-07-13T08:21:28.090Z,99.99
2018-07-13T08:22:28.679Z,99.99
2018-07-13T08:23:29.300Z,99.99
2018-07-13T08:24:29.884Z,99.99
2018-07-13T08:25:30.472Z,99.99
2018-07-13T08:26:31.106Z,99.99
2018-07-13T08:27:31.695Z,99.99
2018-07-13T08:28:32.277Z,99.99
2018-07-13T08:29:32.866Z,99.99
2018-07-13T08:30:33.502Z,99.99
2018-07-13T08:31:34.090Z,99.99
2018-07-13T08:32:34.676Z,99.99
2018-07-13T08:33:35.268Z,99.99
2018-07-13T08:34:35.849Z,99.99
2018-07-13T08:35:36.432Z,99.99
2018-07-13T08:36:37.015Z,99.99
2018-07-13T08:37:37.628Z,99.99
2018-07-13T08:38:38.236Z,99.99
2018-07-13T08:39:38.820Z,99.99
2018-07-13T08:40:39.408Z,99.99
2018-07-13T08:41:39.995Z,99.99
2018-07-13T08:42:40.577Z,99.99
2018-07-13T08:43:41.186Z,99.99
2018-07-13T08:44:41.748Z,99.99
2018-07-13T08:45:42.437Z,99.99
2018-07-13T08:46:42.968Z,99.99
2018-07-13T08:47:43.548Z,99.99
2018-07-13T08:48:44.188Z,99.99
2018-07-13T08:49:44.817Z,99.99
2018-07-13T08:50:45.400Z,99.99
2018-07-13T08:51:46.068Z,99.99
2018-07-13T08:52:46.572Z,99.99
2018-07-13T08:53:47.162Z,99.99
2018-07-13T08:54:47.752Z,99.99
2018-07-13T08:55:48.337Z,99.99
2018-07-13T08:56:48.973Z,99.99
2018-07-13T08:57:49.560Z,99.99
2018-07-13T08:58:50.195Z,99.99
2018-07-13T08:59:50.807Z,99.99
2018-07-13T09:00:51.369Z,99.99
2018-07-13T09:01:51.960Z,99.99
2018-07-13T09:02:52.586Z,99.99
2018-07-13T09:03:53.176Z,99.99
2018-07-13T09:04:53.762Z,99.99
2018-07-13T09:05:54.407Z,99.99
2018-07-13T09:06:54.987Z,99.99
2018-07-13T09:07:55.572Z,99.99
2018-07-13T09:08:56.158Z,99.99
2018-07-13T09:09:56.743Z,99.99
2018-07-13T09:10:57.377Z,99.99
2018-07-13T09:11:57.998Z,99.99
2018-07-13T09:12:58.568Z,99.99
2018-07-13T09:13:59.136Z,99.99
2018-07-13T09:14:59.770Z,99.99
2018-07-13T09:16:00.405Z,99.99
2018-07-13T09:17:00.992Z,99.99
2018-07-13T09:18:01.576Z,99.99
2018-07-13T09:19:02.165Z,99.99
2018-07-13T09:20:02.745Z,99.99
2018-07-13T09:21:03.334Z,99.99
2018-07-13T09:22:03.923Z,99.99
2018-07-13T09:23:04.505Z,99.99
2018-07-13T09:24:05.133Z,99.99
2018-07-13T09:25:05.731Z,99.99
2018-07-13T09:26:06.322Z,99.99
2018-07-13T09:27:06.905Z,99.99
2018-07-13T09:28:07.492Z,99.99
2018-07-13T09:29:08.078Z,99.99
2018-07-13T09:30:08.713Z,99.99
2018-07-13T09:31:09.321Z,99.99
2018-07-13T09:32:09.935Z,99.99
2018-07-13T09:33:10.534Z,99.99
2018-07-13T09:34:11.114Z,99.99
2018-07-13T09:35:11.750Z,99.99
2018-07-13T09:36:12.332Z,99.99
2018-07-13T09:37:12.922Z,99.99
2018-07-13T09:38:13.513Z,99.99
2018-07-13T09:39:14.092Z,99.99
2018-07-13T09:40:14.731Z,99.99
2018-07-13T09:41:15.314Z,99.99
2018-07-13T09:42:15.905Z,99.99
2018-07-13T09:43:16.499Z,99.99
2018-07-13T09:44:17.182Z,99.99
2018-07-13T09:45:17.818Z,99.99
2018-07-13T09:46:18.402Z,99.99
2018-07-13T09:47:19.038Z,99.99
2018-07-13T09:48:19.678Z,99.99
2018-07-13T09:49:20.313Z,99.99
2018-07-13T09:50:20.898Z,99.99
2018-07-13T09:51:21.533Z,99.99
2018-07-13T09:52:22.113Z,99.99
2018-07-13T09:53:22.704Z,99.99
2018-07-13T09:54:23.291Z,99.99
2018-07-13T09:55:23.876Z,99.99
2018-07-13T09:56:24.460Z,99.99
2018-07-13T09:57:25.050Z,99.99
2018-07-13T09:58:25.637Z,99.99
2018-07-13T09:59:26.225Z,99.99
2018-07-13T10:00:26.920Z,99.99
2018-07-13T10:01:27.497Z,99.99
2018-07-13T10:02:28.083Z,99.99
2018-07-13T10:03:28.664Z,99.99
2018-07-13T10:04:29.255Z,99.99
2018-07-13T10:05:29.840Z,99.99
2018-07-13T10:06:30.481Z,99.99
2018-07-13T10:07:31.064Z,99.99
2018-07-13T10:08:31.650Z,99.99
2018-07-13T10:09:32.287Z,99.99
2018-07-13T10:10:32.876Z,99.99
2018-07-13T10:11:33.463Z,99.99
2018-07-13T10:12:34.050Z,99.99
2018-07-13T10:13:34.639Z,99.99
2018-07-13T10:14:35.226Z,99.99
2018-07-13T10:15:35.811Z,99.99
2018-07-13T10:16:36.402Z,99.99
2018-07-13T10:17:36.992Z,99.99
2018-07-13T10:18:37.571Z,99.99
2018-07-13T10:19:38.163Z,99.99
2018-07-13T10:20:38.809Z,99.99
2018-07-13T10:21:39.334Z,99.99
2018-07-13T10:22:39.922Z,99.99
2018-07-13T10:23:40.558Z,99.99
2018-07-13T10:24:41.191Z,99.99
2018-07-13T10:25:41.825Z,99.99
2018-07-13T10:26:42.413Z,99.99
2018-07-13T10:27:43.001Z,99.99
2018-07-13T10:28:43.583Z,99.99
2018-07-13T10:29:44.173Z,99.99
2018-07-13T10:30:44.759Z,99.99
2018-07-13T10:31:45.353Z,99.99
2018-07-13T10:32:45.934Z,99.99
2018-07-13T10:33:46.517Z,99.99
2018-07-13T10:34:47.103Z,99.99
2018-07-13T10:35:47.691Z,99.99
2018-07-13T10:36:48.275Z,99.99
2018-07-13T10:37:48.864Z,99.99
2018-07-13T10:38:49.451Z,99.99
2018-07-13T10:39:50.036Z,99.99
2018-07-13T10:40:50.673Z,99.99
2018-07-13T10:41:51.257Z,99.99
2018-07-13T10:42:51.847Z,99.99
2018-07-13T10:43:52.440Z,99.99
2018-07-13T10:44:53.080Z,99.99
2018-07-13T10:45:53.667Z,99.99
2018-07-13T10:46:54.262Z,99.99
2018-07-13T10:47:54.854Z,99.99
2018-07-13T10:48:55.497Z,99.99
2018-07-13T10:49:56.090Z,99.99
2018-07-13T10:50:56.684Z,99.99
2018-07-13T10:51:57.272Z,99.99
2018-07-13T10:52:57.868Z,99.99
2018-07-13T10:53:58.457Z,99.99
2018-07-13T10:54:59.047Z,99.85
2018-07-13T10:55:59.638Z,99.46
2018-07-13T10:57:00.271Z,99.94
2018-07-13T10:58:00.866Z,99.17
2018-07-13T10:59:01.460Z,99.17
2018-07-13T11:00:02.103Z,98.97
2018-07-13T11:01:02.697Z,98.88
2018-07-13T11:02:03.284Z,99.07
2018-07-13T11:03:03.879Z,98.88
2018-07-13T11:04:04.474Z,99.07
2018-07-13T11:05:05.061Z,98.97
2018-07-13T11:06:05.657Z,98.88
2018-07-13T11:07:06.244Z,99.17
2018-07-13T11:08:06.883Z,99.17
2018-07-13T11:09:07.487Z,99.07
2018-07-13T11:10:08.133Z,98.58
2018-07-13T11:11:08.729Z,98.68
2018-07-13T11:12:09.321Z,97.96
2018-07-13T11:13:09.915Z,97.76
2018-07-13T11:14:10.509Z,97.67
2018-07-13T11:15:11.147Z,97.76
2018-07-13T11:16:11.747Z,97.76
2018-07-13T11:17:12.393Z,97.86
2018-07-13T11:18:12.988Z,97.67
2018-07-13T11:19:13.581Z,97.67
2018-07-13T11:20:14.175Z,97.28
2018-07-13T11:21:14.764Z,97.76
2018-07-13T11:22:15.364Z,97.86
2018-07-13T11:23:15.962Z,97.67
2018-07-13T11:24:16.622Z,97.28
2018-07-13T11:25:17.151Z,97.08
2018-07-13T11:26:17.795Z,97.28
2018-07-13T11:27:18.386Z,97.38
2018-07-13T11:28:19.035Z,97.67
2018-07-13T11:29:19.673Z,97.86
2018-07-13T11:30:25.478Z,97.42
2018-07-13T11:31:26.173Z,97.28
2018-07-13T11:32:26.819Z,97.28
2018-07-13T11:33:27.417Z,96.80
2018-07-13T11:34:28.114Z,96.89
2018-07-13T11:35:28.708Z,97.18
2018-07-13T11:36:29.305Z,97.18
2018-07-13T11:37:29.902Z,97.18
2018-07-13T11:38:30.537Z,96.84
2018-07-13T11:39:31.131Z,96.75
2018-07-13T11:40:31.727Z,96.84
2018-07-13T11:41:32.324Z,96.55
2018-07-13T11:42:32.912Z,96.84
2018-07-13T11:43:33.511Z,96.16
2018-07-13T11:44:34.105Z,95.68
2018-07-13T11:45:34.701Z,96.36
2018-07-13T11:46:35.296Z,96.80
2018-07-13T11:47:35.888Z,95.92
2018-07-13T11:48:36.529Z,97.03
2018-07-13T11:49:37.170Z,96.80
2018-07-13T11:50:37.818Z,96.21
2018-07-13T11:51:38.407Z,96.60
2018-07-13T11:52:39.002Z,96.89
2018-07-13T11:53:39.598Z,96.98
2018-07-13T11:54:40.194Z,96.41
2018-07-13T11:55:40.782Z,96.60
2018-07-13T11:56:41.376Z,96.80
2018-07-13T11:57:41.975Z,96.80
2018-07-13T11:58:42.571Z,96.89
2018-07-13T11:59:43.167Z,97.18
2018-07-13T12:00:43.758Z,97.28
2018-07-13T12:01:44.389Z,97.18
2018-07-13T12:02:44.942Z,96.60
2018-07-13T12:03:45.540Z,95.92
2018-07-13T12:04:46.134Z,96.12
2018-07-13T12:05:46.731Z,96.21
2018-07-13T12:06:47.478Z,95.87
2018-07-13T12:07:48.388Z,95.78
2018-07-13T12:08:48.718Z,95.39
2018-07-13T12:09:49.322Z,95.39
2018-07-13T12:10:49.919Z,95.00
2018-07-13T12:11:50.561Z,95.58
2018-07-13T12:12:51.158Z,95.39
2018-07-13T12:13:51.745Z,95.19
2018-07-13T12:14:52.340Z,95.14
2018-07-13T12:15:52.941Z,94.76
2018-07-13T12:16:53.542Z,93.88
2018-07-13T12:17:54.135Z,93.79
2018-07-13T12:18:54.724Z,93.69
2018-07-13T12:19:55.383Z,93.59
2018-07-13T12:20:55.922Z,93.49
2018-07-13T12:21:56.516Z,93.88
2018-07-13T12:22:57.162Z,93.30
2018-07-13T12:23:57.822Z,93.49
2018-07-13T12:24:58.357Z,92.38
2018-07-13T12:25:58.996Z,91.21
2018-07-13T12:26:59.653Z,92.76
2018-07-13T12:28:00.187Z,91.70
2018-07-13T12:29:00.786Z,91.06
2018-07-13T12:30:01.430Z,90.38
2018-07-13T12:31:02.026Z,90.09
2018-07-13T12:32:02.628Z,89.07
2018-07-13T12:33:03.239Z,89.07
2018-07-13T12:34:03.880Z,89.17
2018-07-13T12:35:04.522Z,88.87
2018-07-13T12:36:05.121Z,88.68
2018-07-13T12:37:05.721Z,88.39
2018-07-13T12:38:06.327Z,88.33
2018-07-13T12:39:06.922Z,88.14
2018-07-13T12:40:07.521Z,87.75
2018-07-13T12:41:08.123Z,87.16
2018-07-13T12:42:08.724Z,87.55
2018-07-13T12:43:09.368Z,87.07
2018-07-13T12:44:09.972Z,86.78
2018-07-13T12:45:10.611Z,86.63
2018-07-13T12:46:11.291Z,86.82
2018-07-13T12:47:11.805Z,86.72
2018-07-13T12:48:12.410Z,86.63
2018-07-13T12:49:13.055Z,85.66
2018-07-13T12:50:13.695Z,85.46
2018-07-13T12:51:14.293Z,85.27
2018-07-13T12:52:14.893Z,85.36
2018-07-13T12:53:15.537Z,85.07
2018-07-13T12:54:16.157Z,85.17
2018-07-13T12:55:16.797Z,84.92
2018-07-13T12:56:17.385Z,84.92
2018-07-13T12:57:17.988Z,84.72
2018-07-13T12:58:18.684Z,83.85
2018-07-13T12:59:19.303Z,84.14
2018-07-13T13:00:19.876Z,83.95